createdAt,value
2022-11-25T00:00:14.567Z,25.45
2022-11-25T00:02:59.687Z,26.77
2022-11-25T00:05:45.055Z,25.02
2022-11-25T00:08:30.036Z,26.40
2022-11-25T00:11:15.973Z,22.45
2022-11-25T00:14:01.238Z,26.02
2022-11-25T00:16:48.660Z,24.38
2022-11-25T00:19:34.243Z,31.73
2022-11-25T00:22:19.481Z,39.67
2022-11-25T00:25:05.211Z,27.52
2022-11-25T00:27:52.976Z,29.75
2022-11-25T00:30:38.330Z,30.75
2022-11-25T00:33:23.379Z,22.15
2022-11-25T00:36:36.330Z,23.95
2022-11-25T00:39:24.488Z,29.10
2022-11-25T00:42:29.148Z,30.95
2022-11-25T00:45:14.386Z,26.35
2022-11-25T00:47:59.563Z,25.90
2022-11-25T00:50:44.395Z,22.65
2022-11-25T00:53:31.064Z,29.80
2022-11-25T00:56:16.949Z,33.97
2022-11-25T00:59:03.540Z,25.15
2022-11-25T01:01:48.911Z,30.40
2022-11-25T01:04:34.139Z,28.88
2022-11-25T01:07:19.781Z,23.15
2022-11-25T01:10:05.549Z,23.48
2022-11-25T01:12:50.830Z,25.05
2022-11-25T01:15:37.760Z,23.10
2022-11-25T01:18:23.345Z,33.25
2022-11-25T01:21:09.864Z,28.75
2022-11-25T01:23:55.256Z,33.45
2022-11-25T01:26:41.026Z,34.10
2022-11-25T01:29:26.504Z,22.63
2022-11-25T01:32:11.779Z,27.90
2022-11-25T01:34:56.815Z,35.22
2022-11-25T01:37:41.794Z,20.65
2022-11-25T01:40:26.991Z,30.83
2022-11-25T01:43:15.775Z,23.70
2022-11-25T01:46:06.756Z,23.10
2022-11-25T01:48:54.637Z,30.08
2022-11-25T01:51:48.436Z,24.55
2022-11-25T01:54:40.472Z,29.83
2022-11-25T01:57:30.714Z,30.83
2022-11-25T02:00:17.047Z,34.75
2022-11-25T02:03:02.350Z,28.67
2022-11-25T02:06:02.868Z,34.75
2022-11-25T02:08:51.544Z,29.33
2022-11-25T02:11:40.243Z,28.55
2022-11-25T02:14:27.040Z,25.10
2022-11-25T02:17:12.466Z,23.80
2022-11-25T02:20:08.774Z,31.83
2022-11-25T02:23:09.143Z,29.05
2022-11-25T02:25:54.776Z,24.70
2022-11-25T02:28:40.046Z,28.60
2022-11-25T02:31:25.473Z,27.50
2022-11-25T02:34:10.664Z,27.30
2022-11-25T02:36:56.740Z,36.00
2022-11-25T02:39:42.320Z,34.22
2022-11-25T02:42:29.623Z,31.55
2022-11-25T02:45:17.724Z,32.72
2022-11-25T02:48:03.022Z,34.13
2022-11-25T02:50:48.784Z,26.27
2022-11-25T02:53:33.986Z,36.22
2022-11-25T02:56:21.834Z,28.88
2022-11-25T02:59:07.666Z,42.28
2022-11-25T03:01:53.143Z,24.30
2022-11-25T03:04:38.849Z,36.78
2022-11-25T03:07:24.046Z,31.52
2022-11-25T03:10:09.755Z,30.83
2022-11-25T03:12:54.703Z,25.73
2022-11-25T03:15:43.878Z,36.58
2022-11-25T03:18:29.096Z,39.10
2022-11-25T03:21:14.440Z,26.42
2022-11-25T03:24:00.368Z,29.67
2022-11-25T03:26:45.342Z,31.35
2022-11-25T03:29:30.667Z,27.50
2022-11-25T03:32:16.003Z,26.63
2022-11-25T03:35:01.089Z,32.63
2022-11-25T03:37:46.784Z,36.35
2022-11-25T03:40:32.076Z,42.67
2022-11-25T03:43:17.225Z,38.75
2022-11-25T03:46:02.511Z,33.30
2022-11-25T03:48:47.567Z,30.48
2022-11-25T03:51:32.446Z,27.80
2022-11-25T03:54:17.790Z,25.30
2022-11-25T03:57:02.855Z,26.40
2022-11-25T03:59:48.022Z,31.15
2022-11-25T04:02:33.244Z,33.47
2022-11-25T04:05:18.705Z,30.63
2022-11-25T04:08:04.029Z,26.20
2022-11-25T04:10:50.416Z,22.77
2022-11-25T04:13:35.562Z,25.67
2022-11-25T04:16:24.938Z,30.25
2022-11-25T04:21:55.331Z,32.70
2022-11-25T04:24:40.795Z,31.80
2022-11-25T04:27:26.115Z,23.77
2022-11-25T04:30:12.003Z,29.95
2022-11-25T04:32:57.347Z,25.95
2022-11-25T04:35:42.874Z,21.67
2022-11-25T04:38:28.282Z,24.05
2022-11-25T04:41:13.600Z,30.48
2022-11-25T04:44:01.995Z,24.55
2022-11-25T04:46:47.313Z,18.27
2022-11-25T04:49:32.410Z,25.60
2022-11-25T04:52:17.894Z,27.38
2022-11-25T04:55:03.563Z,28.02
2022-11-25T04:57:48.567Z,22.85
2022-11-25T05:00:33.671Z,26.27
2022-11-25T05:03:18.615Z,21.13
2022-11-25T05:06:08.214Z,23.50
2022-11-25T05:11:38.408Z,31.35
2022-11-25T05:14:25.305Z,24.67
2022-11-25T05:17:17.083Z,21.15
2022-11-25T05:20:02.439Z,24.88
2022-11-25T05:22:47.795Z,28.80
2022-11-25T05:25:32.686Z,27.98
2022-11-25T05:28:17.924Z,25.23
2022-11-25T05:31:02.978Z,20.55
2022-11-25T05:33:48.080Z,26.33
2022-11-25T05:36:33.457Z,23.05
2022-11-25T05:39:19.334Z,25.60
2022-11-25T05:42:04.549Z,25.20
2022-11-25T05:44:49.635Z,25.25
2022-11-25T05:47:34.583Z,32.30
2022-11-25T05:50:19.652Z,33.88
2022-11-25T05:53:05.490Z,34.88
2022-11-25T05:55:56.208Z,19.77
2022-11-25T05:58:41.643Z,12.55
2022-11-25T06:01:27.206Z,17.48
2022-11-25T06:04:12.273Z,13.98
2022-11-25T06:06:57.227Z,17.45
2022-11-25T06:09:42.507Z,15.02
2022-11-25T06:12:27.981Z,16.60
2022-11-25T06:15:13.241Z,22.33
2022-11-25T06:17:58.357Z,16.95
2022-11-25T06:20:43.675Z,20.80
2022-11-25T06:23:29.019Z,14.23
2022-11-25T06:26:22.043Z,15.07
2022-11-25T06:29:07.304Z,17.63
2022-11-25T06:31:52.480Z,20.58
2022-11-25T06:34:41.956Z,20.63
2022-11-25T06:37:27.193Z,27.00
2022-11-25T06:40:13.081Z,19.17
2022-11-25T06:42:58.703Z,27.27
2022-11-25T06:45:43.708Z,24.85
2022-11-25T06:48:28.682Z,18.13
2022-11-25T06:51:15.349Z,19.52
2022-11-25T06:54:00.641Z,18.88
2022-11-25T06:56:51.491Z,14.90
2022-11-25T06:59:37.064Z,20.88
2022-11-25T07:02:22.073Z,11.27
2022-11-25T07:05:07.803Z,10.40
2022-11-25T07:07:52.819Z,17.98
2022-11-25T07:10:38.069Z,15.77
2022-11-25T07:13:23.003Z,19.08
2022-11-25T07:16:08.297Z,13.55
2022-11-25T07:18:53.966Z,16.85
2022-11-25T07:21:39.268Z,14.95
2022-11-25T07:24:24.356Z,19.33
2022-11-25T07:27:09.679Z,11.98
2022-11-25T07:30:29.053Z,17.48
2022-11-25T07:33:00.332Z,18.50
2022-11-25T07:35:45.495Z,14.07
2022-11-25T07:38:31.475Z,14.73
2022-11-25T07:41:22.707Z,22.58
2022-11-25T07:44:08.985Z,22.20
2022-11-25T07:46:54.020Z,20.40
2022-11-25T07:49:39.463Z,26.00
2022-11-25T07:52:24.493Z,20.48
2022-11-25T07:55:09.849Z,19.25
2022-11-25T07:57:55.023Z,23.33
2022-11-25T08:00:40.140Z,19.25
2022-11-25T08:03:25.208Z,20.48
2022-11-25T08:06:13.171Z,19.27
2022-11-25T08:08:58.584Z,17.08
2022-11-25T08:11:43.599Z,23.23
2022-11-25T08:14:28.497Z,16.60
2022-11-25T08:17:13.885Z,19.23
2022-11-25T08:19:59.208Z,23.17
2022-11-25T08:22:44.652Z,18.90
2022-11-25T08:25:31.807Z,17.73
2022-11-25T08:28:17.093Z,19.75
2022-11-25T08:31:07.871Z,21.38
2022-11-25T08:33:54.572Z,21.90
2022-11-25T08:36:42.538Z,15.02
2022-11-25T08:42:37.275Z,25.35
2022-11-25T08:45:22.347Z,21.55
2022-11-25T08:48:07.639Z,19.55
2022-11-25T08:50:54.517Z,21.55
2022-11-25T08:53:40.938Z,16.02
2022-11-25T08:56:26.916Z,28.92
2022-11-25T08:59:13.290Z,14.93
2022-11-25T09:01:58.639Z,21.85
2022-11-25T09:04:44.053Z,24.50
2022-11-25T09:07:30.823Z,17.58
2022-11-25T09:10:17.645Z,23.67
2022-11-25T09:13:02.796Z,35.63
2022-11-25T09:15:48.092Z,24.77
2022-11-25T09:18:35.240Z,26.05
2022-11-25T09:21:20.199Z,19.58
2022-11-25T09:24:05.333Z,19.35
2022-11-25T09:26:51.042Z,24.48
2022-11-25T09:29:36.779Z,20.60
2022-11-25T09:32:22.147Z,22.25
2022-11-25T09:35:07.653Z,19.38
2022-11-25T09:37:52.983Z,24.27
2022-11-25T09:41:16.071Z,17.65
2022-11-25T09:44:46.911Z,18.58
2022-11-25T09:47:35.164Z,23.67
2022-11-25T09:50:45.491Z,19.63
2022-11-25T09:53:59.624Z,18.13
2022-11-25T09:56:53.831Z,15.57
2022-11-25T09:59:45.252Z,23.10
2022-11-25T10:03:23.980Z,17.95
2022-11-25T10:06:20.522Z,17.05
2022-11-25T10:09:13.921Z,21.77
2022-11-25T10:12:06.117Z,12.82
2022-11-25T10:15:00.840Z,18.58
2022-11-25T10:17:52.123Z,19.10
2022-11-25T10:20:41.361Z,21.10
2022-11-25T10:23:35.298Z,22.97
2022-11-25T10:26:27.080Z,25.88
2022-11-25T10:29:15.017Z,18.08
2022-11-25T10:32:16.058Z,24.65
2022-11-25T10:35:11.681Z,19.42
2022-11-25T10:38:00.046Z,17.50
2022-11-25T10:40:48.784Z,19.40
2022-11-25T10:43:39.014Z,21.27
2022-11-25T10:47:04.999Z,23.48
2022-11-25T10:50:24.962Z,18.63
2022-11-25T10:53:17.102Z,15.05
2022-11-25T10:56:11.144Z,17.75
2022-11-25T10:58:56.195Z,13.85
2022-11-25T11:01:41.053Z,17.80
2022-11-25T11:04:26.107Z,17.92
2022-11-25T11:07:14.119Z,14.40
2022-11-25T11:10:22.753Z,13.27
2022-11-25T11:13:20.070Z,19.80
2022-11-25T11:16:26.452Z,19.45
2022-11-25T11:19:29.270Z,19.00
2022-11-25T11:22:17.245Z,16.80
2022-11-25T11:25:23.318Z,23.50
2022-11-25T11:28:29.024Z,17.30
2022-11-25T11:31:26.342Z,18.27
2022-11-25T11:34:36.777Z,21.10
2022-11-25T11:37:44.196Z,28.75
2022-11-25T11:40:35.620Z,25.52
2022-11-25T11:43:35.903Z,17.80
2022-11-25T11:46:34.218Z,19.63
2022-11-25T11:49:34.757Z,13.43
2022-11-25T11:52:23.022Z,14.70
2022-11-25T11:55:28.674Z,18.00
2022-11-25T11:58:25.553Z,13.00
2022-11-25T12:01:22.179Z,15.65
2022-11-25T12:04:28.475Z,14.57
2022-11-25T12:07:47.712Z,16.85
2022-11-25T12:10:53.046Z,23.40
2022-11-25T12:14:07.129Z,16.65
2022-11-25T12:17:02.031Z,17.65
2022-11-25T12:20:07.114Z,21.50
2022-11-25T12:23:04.009Z,16.35
2022-11-25T12:25:51.940Z,18.85
2022-11-25T12:29:09.796Z,17.30
2022-11-25T12:32:03.539Z,13.25
2022-11-25T12:35:15.717Z,16.65
2022-11-25T12:38:38.552Z,13.85
2022-11-25T12:41:47.066Z,18.60
2022-11-25T12:44:51.140Z,17.65
2022-11-25T12:47:36.117Z,12.98
2022-11-25T12:50:54.017Z,18.60
2022-11-25T12:53:54.899Z,14.23
2022-11-25T12:56:58.436Z,12.15
2022-11-25T13:00:17.547Z,12.15
2022-11-25T13:03:12.323Z,14.60
2022-11-25T13:06:38.725Z,15.82
2022-11-25T13:09:44.582Z,11.00
2022-11-25T13:12:33.244Z,76.30
2022-11-25T13:15:19.014Z,21.90
2022-11-25T13:18:12.598Z,26.65
2022-11-25T13:21:06.868Z,24.02
2022-11-25T13:23:57.225Z,13.10
2022-11-25T13:26:49.616Z,40.90
2022-11-25T13:29:53.057Z,17.27
2022-11-25T13:32:40.538Z,16.08
2022-11-25T13:35:34.641Z,19.02
2022-11-25T13:38:57.708Z,17.23
2022-11-25T13:41:49.441Z,14.57
2022-11-25T13:44:48.766Z,9.73
2022-11-25T13:47:41.210Z,10.90
2022-11-25T13:50:41.936Z,13.48
2022-11-25T13:53:35.835Z,12.75
2022-11-25T13:56:20.820Z,13.90
2022-11-25T13:59:11.996Z,12.55
2022-11-25T14:02:29.208Z,8.25
2022-11-25T14:05:33.460Z,10.73
2022-11-25T14:08:33.270Z,13.48
2022-11-25T14:11:40.220Z,12.07
2022-11-25T14:14:49.976Z,11.00
2022-11-25T14:17:41.696Z,13.95
2022-11-25T14:20:55.819Z,9.75
2022-11-25T14:24:00.529Z,16.10
2022-11-25T14:26:50.685Z,12.63
2022-11-25T14:29:40.436Z,17.08
2022-11-25T14:32:31.805Z,26.48
2022-11-25T14:35:33.786Z,33.72
2022-11-25T14:38:32.803Z,16.45
2022-11-25T14:41:23.805Z,36.55
2022-11-25T14:44:21.720Z,13.23
2022-11-25T14:47:06.955Z,12.90
2022-11-25T14:50:18.842Z,12.52
2022-11-25T14:53:00.245Z,12.10
2022-11-25T14:55:48.627Z,12.55
2022-11-25T14:58:34.087Z,9.65
2022-11-25T15:01:27.805Z,13.98
2022-11-25T15:04:12.849Z,7.88
2022-11-25T15:07:01.454Z,13.60
2022-11-25T15:09:46.602Z,16.65
2022-11-25T15:12:33.043Z,12.43
2022-11-25T15:15:18.273Z,10.02
2022-11-25T15:18:15.459Z,14.25
2022-11-25T15:21:00.772Z,14.30
2022-11-25T15:23:45.990Z,15.40
2022-11-25T15:26:34.537Z,15.88
2022-11-25T15:29:20.253Z,11.52
2022-11-25T15:32:05.824Z,11.85
2022-11-25T15:34:52.878Z,17.30
2022-11-25T15:37:38.115Z,13.40
2022-11-25T15:40:36.829Z,27.20
2022-11-25T15:43:29.705Z,17.92
2022-11-25T15:46:15.855Z,15.27
2022-11-25T15:49:07.816Z,21.20
2022-11-25T15:51:42.192Z,15.85
2022-11-25T15:54:44.312Z,22.80
2022-11-25T15:57:36.785Z,14.55
2022-11-25T16:00:23.556Z,18.33
2022-11-25T16:03:23.048Z,11.38
2022-11-25T16:06:26.255Z,18.90
2022-11-25T16:09:21.403Z,17.75
2022-11-25T16:12:07.429Z,14.35
2022-11-25T16:14:52.670Z,15.93
2022-11-25T16:17:37.843Z,18.30
2022-11-25T16:20:24.873Z,17.23
2022-11-25T16:23:13.525Z,19.52
2022-11-25T16:26:05.360Z,16.17
2022-11-25T16:28:58.853Z,17.42
2022-11-25T16:31:44.699Z,14.20
2022-11-25T16:34:30.821Z,20.10
2022-11-25T16:37:16.236Z,15.90
2022-11-25T16:40:01.676Z,17.67
2022-11-25T16:42:48.936Z,20.17
2022-11-25T16:45:33.953Z,16.65
2022-11-25T16:48:23.830Z,22.80
2022-11-25T16:51:29.370Z,18.15
2022-11-25T16:54:14.546Z,18.58
2022-11-25T16:57:00.317Z,16.10
2022-11-25T16:59:48.145Z,19.55
2022-11-25T17:02:33.632Z,22.67
2022-11-25T17:05:22.094Z,18.02
2022-11-25T17:08:07.061Z,19.63
2022-11-25T17:10:57.623Z,16.45
2022-11-25T17:13:46.238Z,14.80
2022-11-25T17:16:31.559Z,26.67
2022-11-25T17:19:17.151Z,17.02
2022-11-25T17:22:01.965Z,17.90
2022-11-25T17:24:47.992Z,18.60
2022-11-25T17:27:33.753Z,27.00
2022-11-25T17:30:27.507Z,22.63
2022-11-25T17:33:20.142Z,19.20
2022-11-25T17:36:06.127Z,25.70
2022-11-25T17:38:51.082Z,28.58
2022-11-25T17:41:41.407Z,22.20
2022-11-25T17:44:28.710Z,26.02
2022-11-25T17:47:16.549Z,25.45
2022-11-25T17:50:01.745Z,30.25
2022-11-25T17:52:46.994Z,26.45
2022-11-25T17:55:33.084Z,39.67
2022-11-25T17:58:19.209Z,29.45
2022-11-25T18:01:04.672Z,33.85
2022-11-25T18:03:52.877Z,36.28
2022-11-25T18:06:38.107Z,26.00
2022-11-25T18:09:23.420Z,32.35
2022-11-25T18:12:30.699Z,25.48
2022-11-25T18:15:18.973Z,24.73
2022-11-25T18:18:11.962Z,25.10
2022-11-25T18:20:57.418Z,23.23
2022-11-25T18:23:43.707Z,27.00
2022-11-25T18:26:28.668Z,26.73
2022-11-25T18:29:40.174Z,20.00
2022-11-25T18:32:25.764Z,19.85
2022-11-25T18:35:24.357Z,16.38
2022-11-25T18:38:10.258Z,22.98
2022-11-25T18:40:56.419Z,27.20
2022-11-25T18:43:41.306Z,24.98
2022-11-25T18:46:26.799Z,19.27
2022-11-25T18:49:13.595Z,22.88
2022-11-25T18:51:58.558Z,24.20
2022-11-25T18:54:43.604Z,24.42
2022-11-25T18:57:28.722Z,27.25
2022-11-25T19:00:34.250Z,31.73
2022-11-25T19:03:22.581Z,31.55
2022-11-25T19:06:15.117Z,35.63
2022-11-25T19:09:00.368Z,34.45
2022-11-25T19:11:49.539Z,29.58
2022-11-25T19:14:41.828Z,26.38
2022-11-25T19:17:27.028Z,30.08
2022-11-25T19:20:18.346Z,34.83
2022-11-25T19:23:30.905Z,41.63
2022-11-25T19:26:38.971Z,41.20
2022-11-25T19:29:42.560Z,33.80
2022-11-25T19:32:29.693Z,28.80
2022-11-25T19:35:18.901Z,26.67
2022-11-25T19:38:25.985Z,24.27
2022-11-25T19:41:11.464Z,25.40
2022-11-25T19:43:56.836Z,32.60
2022-11-25T19:47:13.714Z,28.25
2022-11-25T19:49:55.953Z,29.58
2022-11-25T19:52:41.336Z,49.45
2022-11-25T19:55:32.277Z,51.72
2022-11-25T19:58:17.739Z,37.60
2022-11-25T20:01:06.019Z,35.20
2022-11-25T20:03:51.532Z,39.22
2022-11-25T20:06:36.757Z,26.40
2022-11-25T20:09:21.955Z,24.83
2022-11-25T20:12:24.907Z,20.42
2022-11-25T20:15:11.356Z,24.60
2022-11-25T20:18:00.242Z,25.70
2022-11-25T20:20:48.535Z,24.15
2022-11-25T20:23:43.395Z,25.55
2022-11-25T20:26:36.423Z,31.25
2022-11-25T20:29:26.084Z,36.20
2022-11-25T20:32:19.599Z,37.75
2022-11-25T20:35:04.847Z,34.47
2022-11-25T20:37:57.896Z,41.08
2022-11-25T20:40:44.924Z,38.33
2022-11-25T20:43:50.230Z,32.40
2022-11-25T20:46:35.274Z,33.50
2022-11-25T20:49:23.737Z,32.97
2022-11-25T20:52:18.353Z,31.58
2022-11-25T20:55:16.610Z,37.60
2022-11-25T20:58:03.293Z,44.90
2022-11-25T21:00:52.885Z,41.22
2022-11-25T21:03:43.379Z,39.60
2022-11-25T21:06:30.439Z,41.38
2022-11-25T21:09:19.907Z,31.02
2022-11-25T21:12:06.748Z,43.90
2022-11-25T21:14:51.922Z,40.45
2022-11-25T21:17:36.985Z,38.75
2022-11-25T21:20:22.115Z,36.70
2022-11-25T21:23:16.964Z,33.30
2022-11-25T21:26:20.291Z,33.50
2022-11-25T21:29:05.655Z,33.90
2022-11-25T21:31:50.855Z,39.97
2022-11-25T21:34:36.404Z,40.25
2022-11-25T21:37:29.785Z,37.25
2022-11-25T21:40:26.083Z,30.88
2022-11-25T21:43:21.816Z,27.88
2022-11-25T21:46:12.747Z,40.25
2022-11-25T21:48:58.011Z,36.75
2022-11-25T21:51:42.844Z,38.90
2022-11-25T21:54:27.791Z,40.42
2022-11-25T21:57:27.914Z,43.58
2022-11-25T22:00:22.970Z,75.07
2022-11-25T22:03:15.711Z,60.90
2022-11-25T22:06:00.777Z,38.83
2022-11-25T22:08:45.931Z,24.38
2022-11-25T22:11:37.557Z,26.85
2022-11-25T22:14:28.806Z,16.92
2022-11-25T22:17:18.129Z,26.17
2022-11-25T22:20:04.789Z,35.33
2022-11-25T22:22:49.655Z,30.52
2022-11-25T22:25:34.983Z,35.42
2022-11-25T22:28:24.444Z,30.20
2022-11-25T22:31:19.371Z,24.15
2022-11-25T22:34:04.263Z,24.00
2022-11-25T22:36:49.352Z,25.65
2022-11-25T22:39:34.594Z,26.20
2022-11-25T22:42:25.624Z,25.23
2022-11-25T22:45:30.122Z,25.70
2022-11-25T22:48:18.383Z,34.78
2022-11-25T22:51:04.381Z,40.90
2022-11-25T22:53:49.812Z,35.10
2022-11-25T22:56:34.783Z,35.50
2022-11-25T22:59:19.604Z,39.38
2022-11-25T23:02:05.024Z,37.63
2022-11-25T23:04:55.632Z,46.22
2022-11-25T23:07:40.591Z,39.88
2022-11-25T23:10:29.755Z,31.02
2022-11-25T23:13:17.104Z,31.80
2022-11-25T23:16:04.289Z,39.10
2022-11-25T23:18:49.733Z,27.10
2022-11-25T23:21:35.135Z,36.05
2022-11-25T23:24:20.203Z,33.95
2022-11-25T23:27:05.497Z,24.75
2022-11-25T23:29:50.516Z,35.47
2022-11-25T23:32:35.784Z,37.10
2022-11-25T23:35:34.714Z,31.13
2022-11-25T23:38:24.178Z,32.13
2022-11-25T23:41:14.702Z,32.65
2022-11-25T23:44:13.794Z,28.33
2022-11-25T23:47:02.947Z,29.92
2022-11-25T23:49:52.289Z,23.98
2022-11-25T23:52:37.343Z,34.60
2022-11-25T23:55:26.783Z,27.08
